sensor_id;sensor_type;location;lat;lon;timestamp;temperature;humidity
3275;DHT22;1649;53.672;10.064;2022-11-20T00:02:21;2.30;99.90
3275;DHT22;1649;53.672;10.064;2022-11-20T00:04:47;2.20;99.90
3275;DHT22;1649;53.672;10.064;2022-11-20T00:07:12;2.30;99.90
3275;DHT22;1649;53.672;10.064;2022-11-20T00:09:37;2.20;99.90
3275;DHT22;1649;53.672;10.064;2022-11-20T00:12:03;2.20;99.90
3275;DHT22;1649;53.672;10.064;2022-11-20T00:14:29;2.20;99.90
3275;DHT22;1649;53.672;10.064;2022-11-20T00:16:54;2.30;99.90
3275;DHT22;1649;53.672;10.064;2022-11-20T00:19:20;2.30;99.90
3275;DHT22;1649;53.672;10.064;2022-11-20T00:21:45;2.30;99.90
3275;DHT22;1649;53.672;10.064;2022-11-20T00:24:11;2.30;99.90
3275;DHT22;1649;53.672;10.064;2022-11-20T00:26:37;2.30;99.90
3275;DHT22;1649;53.672;10.064;2022-11-20T00:29:02;2.30;99.90
3275;DHT22;1649;53.672;10.064;2022-11-20T00:31:29;2.30;99.90
3275;DHT22;1649;53.672;10.064;2022-11-20T00:33:54;2.20;99.90
3275;DHT22;1649;53.672;10.064;2022-11-20T00:36:22;2.20;99.90
3275;DHT22;1649;53.672;10.064;2022-11-20T00:38:52;2.20;99.90
3275;DHT22;1649;53.672;10.064;2022-11-20T00:41:17;2.20;99.90
3275;DHT22;1649;53.672;10.064;2022-11-20T00:43:43;2.20;99.90
3275;DHT22;1649;53.672;10.064;2022-11-20T00:46:15;2.10;99.90
3275;DHT22;1649;53.672;10.064;2022-11-20T00:48:42;2.10;99.90
3275;DHT22;1649;53.672;10.064;2022-11-20T00:51:08;2.10;99.90
3275;DHT22;1649;53.672;10.064;2022-11-20T00:53:33;2.10;99.90
3275;DHT22;1649;53.672;10.064;2022-11-20T00:56:09;2.10;99.90
3275;DHT22;1649;53.672;10.064;2022-11-20T00:58:37;2.20;99.90
3275;DHT22;1649;53.672;10.064;2022-11-20T01:01:08;2.20;99.90
3275;DHT22;1649;53.672;10.064;2022-11-20T01:03:43;2.20;99.90
3275;DHT22;1649;53.672;10.064;2022-11-20T01:06:17;2.20;99.90
3275;DHT22;1649;53.672;10.064;2022-11-20T01:08:45;2.10;99.90
3275;DHT22;1649;53.672;10.064;2022-11-20T01:11:16;2.10;99.90
3275;DHT22;1649;53.672;10.064;2022-11-20T01:13:42;2.10;99.90
3275;DHT22;1649;53.672;10.064;2022-11-20T01:18:40;2.20;99.90
3275;DHT22;1649;53.672;10.064;2022-11-20T01:21:09;2.20;99.90
3275;DHT22;1649;53.672;10.064;2022-11-20T01:23:39;2.30;99.90
3275;DHT22;1649;53.672;10.064;2022-11-20T01:26:07;2.30;99.90
3275;DHT22;1649;53.672;10.064;2022-11-20T01:28:33;2.30;99.90
3275;DHT22;1649;53.672;10.064;2022-11-20T01:30:59;2.30;99.90
3275;DHT22;1649;53.672;10.064;2022-11-20T01:33:25;2.30;99.90
3275;DHT22;1649;53.672;10.064;2022-11-20T01:35:51;2.20;99.90
3275;DHT22;1649;53.672;10.064;2022-11-20T01:38:17;2.20;99.90
3275;DHT22;1649;53.672;10.064;2022-11-20T01:40:42;2.20;99.90
3275;DHT22;1649;53.672;10.064;2022-11-20T01:43:17;2.20;99.90
3275;DHT22;1649;53.672;10.064;2022-11-20T01:46:17;2.30;99.90
3275;DHT22;1649;53.672;10.064;2022-11-20T01:48:54;2.30;99.90
3275;DHT22;1649;53.672;10.064;2022-11-20T01:51:26;2.30;99.90
3275;DHT22;1649;53.672;10.064;2022-11-20T01:53:55;2.30;99.90
3275;DHT22;1649;53.672;10.064;2022-11-20T01:56:21;2.30;99.90
3275;DHT22;1649;53.672;10.064;2022-11-20T01:58:51;2.30;99.90
3275;DHT22;1649;53.672;10.064;2022-11-20T02:01:19;2.30;99.90
3275;DHT22;1649;53.672;10.064;2022-11-20T02:03:45;2.30;99.90
3275;DHT22;1649;53.672;10.064;2022-11-20T02:06:24;2.30;99.90
3275;DHT22;1649;53.672;10.064;2022-11-20T02:08:51;2.20;99.90
3275;DHT22;1649;53.672;10.064;2022-11-20T02:11:17;2.30;99.90
3275;DHT22;1649;53.672;10.064;2022-11-20T02:13:43;2.30;99.90
3275;DHT22;1649;53.672;10.064;2022-11-20T02:16:16;2.30;99.90
3275;DHT22;1649;53.672;10.064;2022-11-20T02:18:43;2.30;99.90
3275;DHT22;1649;53.672;10.064;2022-11-20T02:21:18;2.30;99.90
3275;DHT22;1649;53.672;10.064;2022-11-20T02:24:06;2.30;99.90
3275;DHT22;1649;53.672;10.064;2022-11-20T02:26:43;2.20;99.90
3275;DHT22;1649;53.672;10.064;2022-11-20T02:29:09;2.20;99.90
3275;DHT22;1649;53.672;10.064;2022-11-20T02:31:41;2.20;99.90
3275;DHT22;1649;53.672;10.064;2022-11-20T02:34:07;2.10;99.90
3275;DHT22;1649;53.672;10.064;2022-11-20T02:36:34;2.00;99.90
3275;DHT22;1649;53.672;10.064;2022-11-20T02:39:01;2.10;99.90
3275;DHT22;1649;53.672;10.064;2022-11-20T02:41:34;2.10;99.90
3275;DHT22;1649;53.672;10.064;2022-11-20T02:44:01;2.10;99.90
3275;DHT22;1649;53.672;10.064;2022-11-20T02:46:26;2.00;99.90
3275;DHT22;1649;53.672;10.064;2022-11-20T02:48:52;2.10;99.90
3275;DHT22;1649;53.672;10.064;2022-11-20T02:51:18;2.00;99.90
3275;DHT22;1649;53.672;10.064;2022-11-20T02:53:43;2.00;99.90
3275;DHT22;1649;53.672;10.064;2022-11-20T02:56:09;2.00;99.90
3275;DHT22;1649;53.672;10.064;2022-11-20T02:58:35;2.00;99.90
3275;DHT22;1649;53.672;10.064;2022-11-20T03:01:00;2.00;99.90
3275;DHT22;1649;53.672;10.064;2022-11-20T03:03:25;2.00;99.90
3275;DHT22;1649;53.672;10.064;2022-11-20T03:05:51;2.00;99.90
3275;DHT22;1649;53.672;10.064;2022-11-20T03:08:16;2.10;99.90
3275;DHT22;1649;53.672;10.064;2022-11-20T03:10:42;2.00;99.90
3275;DHT22;1649;53.672;10.064;2022-11-20T03:13:07;1.90;99.90
3275;DHT22;1649;53.672;10.064;2022-11-20T03:15:33;1.90;99.90
3275;DHT22;1649;53.672;10.064;2022-11-20T03:18:00;2.00;99.90
3275;DHT22;1649;53.672;10.064;2022-11-20T03:20:26;1.90;99.90
3275;DHT22;1649;53.672;10.064;2022-11-20T03:22:53;2.00;99.90
3275;DHT22;1649;53.672;10.064;2022-11-20T03:25:19;1.90;99.90
3275;DHT22;1649;53.672;10.064;2022-11-20T03:27:44;2.00;99.90
3275;DHT22;1649;53.672;10.064;2022-11-20T03:30:10;2.00;99.90
3275;DHT22;1649;53.672;10.064;2022-11-20T03:32:36;1.90;99.90
3275;DHT22;1649;53.672;10.064;2022-11-20T03:35:01;1.90;99.90
3275;DHT22;1649;53.672;10.064;2022-11-20T03:37:27;2.00;99.90
3275;DHT22;1649;53.672;10.064;2022-11-20T03:39:52;2.00;99.90
3275;DHT22;1649;53.672;10.064;2022-11-20T03:42:18;2.00;99.90
3275;DHT22;1649;53.672;10.064;2022-11-20T03:45:02;2.10;99.90
3275;DHT22;1649;53.672;10.064;2022-11-20T03:47:28;2.00;99.90
3275;DHT22;1649;53.672;10.064;2022-11-20T03:49:53;2.10;99.90
3275;DHT22;1649;53.672;10.064;2022-11-20T03:52:19;2.10;99.90
3275;DHT22;1649;53.672;10.064;2022-11-20T03:54:44;2.00;99.90
3275;DHT22;1649;53.672;10.064;2022-11-20T03:57:10;1.90;99.90
3275;DHT22;1649;53.672;10.064;2022-11-20T03:59:35;1.90;99.90
3275;DHT22;1649;53.672;10.064;2022-11-20T04:02:01;2.00;99.90
3275;DHT22;1649;53.672;10.064;2022-11-20T04:04:26;2.00;99.90
3275;DHT22;1649;53.672;10.064;2022-11-20T04:06:52;2.00;99.90
3275;DHT22;1649;53.672;10.064;2022-11-20T04:09:17;1.90;99.90
3275;DHT22;1649;53.672;10.064;2022-11-20T04:11:43;1.90;99.90
3275;DHT22;1649;53.672;10.064;2022-11-20T04:14:13;1.90;99.90
3275;DHT22;1649;53.672;10.064;2022-11-20T04:16:39;1.90;99.90
3275;DHT22;1649;53.672;10.064;2022-11-20T04:19:08;1.90;99.90
3275;DHT22;1649;53.672;10.064;2022-11-20T04:21:35;2.00;99.90
3275;DHT22;1649;53.672;10.064;2022-11-20T04:24:01;2.00;99.90
3275;DHT22;1649;53.672;10.064;2022-11-20T04:26:28;2.00;99.90
3275;DHT22;1649;53.672;10.064;2022-11-20T04:28:54;2.00;99.90
3275;DHT22;1649;53.672;10.064;2022-11-20T04:31:22;1.90;99.90
3275;DHT22;1649;53.672;10.064;2022-11-20T04:33:47;1.90;99.90
3275;DHT22;1649;53.672;10.064;2022-11-20T04:36:18;1.80;99.90
3275;DHT22;1649;53.672;10.064;2022-11-20T04:38:45;1.90;99.90
3275;DHT22;1649;53.672;10.064;2022-11-20T04:41:15;1.80;99.90
3275;DHT22;1649;53.672;10.064;2022-11-20T04:43:41;1.90;99.90
3275;DHT22;1649;53.672;10.064;2022-11-20T04:46:07;1.80;99.90
3275;DHT22;1649;53.672;10.064;2022-11-20T04:48:32;1.80;99.90
3275;DHT22;1649;53.672;10.064;2022-11-20T04:51:03;1.70;99.90
3275;DHT22;1649;53.672;10.064;2022-11-20T04:53:29;1.80;99.90
3275;DHT22;1649;53.672;10.064;2022-11-20T04:56:02;1.70;99.90
3275;DHT22;1649;53.672;10.064;2022-11-20T04:58:29;1.80;99.90
3275;DHT22;1649;53.672;10.064;2022-11-20T05:01:04;1.80;99.90
3275;DHT22;1649;53.672;10.064;2022-11-20T05:03:30;1.80;99.90
3275;DHT22;1649;53.672;10.064;2022-11-20T05:05:59;1.80;99.90
3275;DHT22;1649;53.672;10.064;2022-11-20T05:08:25;1.90;99.90
3275;DHT22;1649;53.672;10.064;2022-11-20T05:10:50;1.80;99.90
3275;DHT22;1649;53.672;10.064;2022-11-20T05:13:16;1.80;99.90
3275;DHT22;1649;53.672;10.064;2022-11-20T05:15:41;1.70;99.90
3275;DHT22;1649;53.672;10.064;2022-11-20T05:18:07;1.80;99.90
3275;DHT22;1649;53.672;10.064;2022-11-20T05:20:32;1.70;99.90
3275;DHT22;1649;53.672;10.064;2022-11-20T05:22:58;1.70;99.90
3275;DHT22;1649;53.672;10.064;2022-11-20T05:25:24;1.70;99.90
3275;DHT22;1649;53.672;10.064;2022-11-20T05:27:49;1.80;99.90
3275;DHT22;1649;53.672;10.064;2022-11-20T05:30:15;1.80;99.90
3275;DHT22;1649;53.672;10.064;2022-11-20T05:32:40;1.80;99.90
3275;DHT22;1649;53.672;10.064;2022-11-20T05:35:06;1.80;99.90
3275;DHT22;1649;53.672;10.064;2022-11-20T05:37:32;1.90;99.90
3275;DHT22;1649;53.672;10.064;2022-11-20T05:39:57;1.90;99.90
3275;DHT22;1649;53.672;10.064;2022-11-20T05:42:23;1.90;99.90
3275;DHT22;1649;53.672;10.064;2022-11-20T05:45:02;1.90;99.90
3275;DHT22;1649;53.672;10.064;2022-11-20T05:47:33;1.80;99.90
3275;DHT22;1649;53.672;10.064;2022-11-20T05:49:59;1.80;99.90
3275;DHT22;1649;53.672;10.064;2022-11-20T05:52:28;1.80;99.90
3275;DHT22;1649;53.672;10.064;2022-11-20T05:54:54;1.70;99.90
3275;DHT22;1649;53.672;10.064;2022-11-20T05:57:20;1.70;99.90
3275;DHT22;1649;53.672;10.064;2022-11-20T05:59:45;1.70;99.90
3275;DHT22;1649;53.672;10.064;2022-11-20T06:02:11;1.60;99.90
3275;DHT22;1649;53.672;10.064;2022-11-20T06:04:36;1.60;99.90
3275;DHT22;1649;53.672;10.064;2022-11-20T06:07:02;1.70;99.90
3275;DHT22;1649;53.672;10.064;2022-11-20T06:09:27;1.70;99.90
3275;DHT22;1649;53.672;10.064;2022-11-20T06:11:53;1.70;99.90
3275;DHT22;1649;53.672;10.064;2022-11-20T06:14:18;1.70;99.90
3275;DHT22;1649;53.672;10.064;2022-11-20T06:16:44;1.60;99.90
3275;DHT22;1649;53.672;10.064;2022-11-20T06:19:09;1.70;99.90
3275;DHT22;1649;53.672;10.064;2022-11-20T06:21:35;1.70;99.90
3275;DHT22;1649;53.672;10.064;2022-11-20T06:24:00;1.60;99.90
3275;DHT22;1649;53.672;10.064;2022-11-20T06:26:27;1.60;99.90
3275;DHT22;1649;53.672;10.064;2022-11-20T06:28:53;1.60;99.90
3275;DHT22;1649;53.672;10.064;2022-11-20T06:31:22;1.50;99.90
3275;DHT22;1649;53.672;10.064;2022-11-20T06:33:49;1.50;99.90
3275;DHT22;1649;53.672;10.064;2022-11-20T06:36:17;1.50;99.90
3275;DHT22;1649;53.672;10.064;2022-11-20T06:38:43;1.50;99.90
3275;DHT22;1649;53.672;10.064;2022-11-20T06:41:14;1.50;99.90
3275;DHT22;1649;53.672;10.064;2022-11-20T06:43:40;1.50;99.90
3275;DHT22;1649;53.672;10.064;2022-11-20T06:46:06;1.50;99.90
3275;DHT22;1649;53.672;10.064;2022-11-20T06:48:32;1.60;99.90
3275;DHT22;1649;53.672;10.064;2022-11-20T06:50:58;1.60;99.90
3275;DHT22;1649;53.672;10.064;2022-11-20T06:53:24;1.60;99.90
3275;DHT22;1649;53.672;10.064;2022-11-20T06:55:50;1.70;99.90
3275;DHT22;1649;53.672;10.064;2022-11-20T06:58:17;1.60;99.90
3275;DHT22;1649;53.672;10.064;2022-11-20T07:00:42;1.60;99.90
3275;DHT22;1649;53.672;10.064;2022-11-20T07:03:10;1.70;99.90
3275;DHT22;1649;53.672;10.064;2022-11-20T07:05:37;1.80;99.90
3275;DHT22;1649;53.672;10.064;2022-11-20T07:08:04;1.70;99.90
3275;DHT22;1649;53.672;10.064;2022-11-20T07:10:30;1.80;99.90
3275;DHT22;1649;53.672;10.064;2022-11-20T07:12:56;1.80;99.90
3275;DHT22;1649;53.672;10.064;2022-11-20T07:15:23;1.80;99.90
3275;DHT22;1649;53.672;10.064;2022-11-20T07:17:49;1.70;99.90
3275;DHT22;1649;53.672;10.064;2022-11-20T07:20:14;1.80;99.90
3275;DHT22;1649;53.672;10.064;2022-11-20T07:22:41;1.80;99.90
3275;DHT22;1649;53.672;10.064;2022-11-20T07:25:07;1.80;99.90
3275;DHT22;1649;53.672;10.064;2022-11-20T07:27:33;1.80;99.90
3275;DHT22;1649;53.672;10.064;2022-11-20T07:29:58;1.80;99.90
3275;DHT22;1649;53.672;10.064;2022-11-20T07:32:24;1.80;99.90
3275;DHT22;1649;53.672;10.064;2022-11-20T07:34:50;1.80;99.90
3275;DHT22;1649;53.672;10.064;2022-11-20T07:37:15;1.80;99.90
3275;DHT22;1649;53.672;10.064;2022-11-20T07:39:41;1.80;99.90
3275;DHT22;1649;53.672;10.064;2022-11-20T07:42:07;1.90;99.90
3275;DHT22;1649;53.672;10.064;2022-11-20T07:44:33;1.80;99.90
3275;DHT22;1649;53.672;10.064;2022-11-20T07:46:59;1.90;99.90
3275;DHT22;1649;53.672;10.064;2022-11-20T07:49:24;1.90;99.90
3275;DHT22;1649;53.672;10.064;2022-11-20T07:51:51;2.00;99.90
3275;DHT22;1649;53.672;10.064;2022-11-20T07:54:16;2.00;99.90
3275;DHT22;1649;53.672;10.064;2022-11-20T07:56:42;2.00;99.90
3275;DHT22;1649;53.672;10.064;2022-11-20T07:59:07;2.00;99.90
3275;DHT22;1649;53.672;10.064;2022-11-20T08:01:33;2.00;99.90
3275;DHT22;1649;53.672;10.064;2022-11-20T08:03:58;2.10;99.90
3275;DHT22;1649;53.672;10.064;2022-11-20T08:06:24;2.00;99.90
3275;DHT22;1649;53.672;10.064;2022-11-20T08:08:50;2.10;99.90
3275;DHT22;1649;53.672;10.064;2022-11-20T08:11:15;2.10;99.90
3275;DHT22;1649;53.672;10.064;2022-11-20T08:13:59;2.10;99.90
3275;DHT22;1649;53.672;10.064;2022-11-20T08:16:47;2.10;99.90
3275;DHT22;1649;53.672;10.064;2022-11-20T08:19:14;2.20;99.90
3275;DHT22;1649;53.672;10.064;2022-11-20T08:21:40;2.20;99.90
3275;DHT22;1649;53.672;10.064;2022-11-20T08:24:07;2.30;99.90
3275;DHT22;1649;53.672;10.064;2022-11-20T08:26:33;2.40;99.90
3275;DHT22;1649;53.672;10.064;2022-11-20T08:28:59;2.40;99.90
3275;DHT22;1649;53.672;10.064;2022-11-20T08:31:26;2.40;99.90
3275;DHT22;1649;53.672;10.064;2022-11-20T08:33:52;2.30;99.90
3275;DHT22;1649;53.672;10.064;2022-11-20T08:36:18;2.20;99.90
3275;DHT22;1649;53.672;10.064;2022-11-20T08:38:52;2.20;99.90
3275;DHT22;1649;53.672;10.064;2022-11-20T08:41:17;2.10;99.90
3275;DHT22;1649;53.672;10.064;2022-11-20T08:43:51;2.20;99.90
3275;DHT22;1649;53.672;10.064;2022-11-20T08:46:17;2.20;99.90
3275;DHT22;1649;53.672;10.064;2022-11-20T08:48:44;2.20;99.90
3275;DHT22;1649;53.672;10.064;2022-11-20T08:51:10;2.20;99.90
3275;DHT22;1649;53.672;10.064;2022-11-20T08:53:36;2.20;99.90
3275;DHT22;1649;53.672;10.064;2022-11-20T08:56:02;2.10;99.90
3275;DHT22;1649;53.672;10.064;2022-11-20T08:58:27;2.00;99.90
3275;DHT22;1649;53.672;10.064;2022-11-20T09:00:53;1.90;99.90
3275;DHT22;1649;53.672;10.064;2022-11-20T09:03:18;2.00;99.90
3275;DHT22;1649;53.672;10.064;2022-11-20T09:05:44;1.90;99.90
3275;DHT22;1649;53.672;10.064;2022-11-20T09:08:09;2.00;99.90
3275;DHT22;1649;53.672;10.064;2022-11-20T09:10:35;2.00;99.90
3275;DHT22;1649;53.672;10.064;2022-11-20T09:13:01;2.00;99.90
3275;DHT22;1649;53.672;10.064;2022-11-20T09:15:27;2.00;99.90
3275;DHT22;1649;53.672;10.064;2022-11-20T09:17:54;2.00;99.90
3275;DHT22;1649;53.672;10.064;2022-11-20T09:20:19;2.20;99.90
3275;DHT22;1649;53.672;10.064;2022-11-20T09:22:45;2.40;99.90
3275;DHT22;1649;53.672;10.064;2022-11-20T09:25:11;2.50;99.90
3275;DHT22;1649;53.672;10.064;2022-11-20T09:27:36;2.70;99.90
3275;DHT22;1649;53.672;10.064;2022-11-20T09:30:03;2.80;99.90
3275;DHT22;1649;53.672;10.064;2022-11-20T09:32:28;3.00;99.90
3275;DHT22;1649;53.672;10.064;2022-11-20T09:34:54;3.00;99.90
3275;DHT22;1649;53.672;10.064;2022-11-20T09:37:19;3.00;99.90
3275;DHT22;1649;53.672;10.064;2022-11-20T09:39:45;3.00;99.90
3275;DHT22;1649;53.672;10.064;2022-11-20T09:42:35;3.00;99.90
3275;DHT22;1649;53.672;10.064;2022-11-20T09:53:56;2.90;99.90
3275;DHT22;1649;53.672;10.064;2022-11-20T09:56:25;2.90;99.90
3275;DHT22;1649;53.672;10.064;2022-11-20T09:58:53;2.90;99.90
3275;DHT22;1649;53.672;10.064;2022-11-20T10:01:22;2.90;99.90
3275;DHT22;1649;53.672;10.064;2022-11-20T10:03:57;2.90;99.90
3275;DHT22;1649;53.672;10.064;2022-11-20T10:06:37;2.90;99.90
3275;DHT22;1649;53.672;10.064;2022-11-20T10:12:00;3.10;99.90
3275;DHT22;1649;53.672;10.064;2022-11-20T10:20:30;3.30;99.90
3275;DHT22;1649;53.672;10.064;2022-11-20T10:23:28;3.40;99.90
3275;DHT22;1649;53.672;10.064;2022-11-20T10:26:11;3.50;99.90
3275;DHT22;1649;53.672;10.064;2022-11-20T10:31:44;3.30;99.90
3275;DHT22;1649;53.672;10.064;2022-11-20T10:34:31;3.20;99.90
3275;DHT22;1649;53.672;10.064;2022-11-20T10:37:06;3.20;99.90
3275;DHT22;1649;53.672;10.064;2022-11-20T10:42:09;3.30;99.90
3275;DHT22;1649;53.672;10.064;2022-11-20T10:44:36;3.30;99.90
3275;DHT22;1649;53.672;10.064;2022-11-20T10:47:22;3.30;99.90
3275;DHT22;1649;53.672;10.064;2022-11-20T10:49:51;3.40;99.90
3275;DHT22;1649;53.672;10.064;2022-11-20T10:52:25;3.50;99.90
3275;DHT22;1649;53.672;10.064;2022-11-20T10:58:08;3.50;99.90
3275;DHT22;1649;53.672;10.064;2022-11-20T11:00:35;3.50;99.90
3275;DHT22;1649;53.672;10.064;2022-11-20T11:03:01;3.30;99.90
3275;DHT22;1649;53.672;10.064;2022-11-20T11:05:45;3.30;99.90
3275;DHT22;1649;53.672;10.064;2022-11-20T11:08:17;3.30;99.90
3275;DHT22;1649;53.672;10.064;2022-11-20T11:13:22;3.40;99.90
3275;DHT22;1649;53.672;10.064;2022-11-20T11:15:48;3.50;99.90
3275;DHT22;1649;53.672;10.064;2022-11-20T11:18:24;3.60;99.90
3275;DHT22;1649;53.672;10.064;2022-11-20T11:20:50;3.80;99.90
3275;DHT22;1649;53.672;10.064;2022-11-20T11:25:59;3.80;99.90
3275;DHT22;1649;53.672;10.064;2022-11-20T11:28:25;3.80;99.90
3275;DHT22;1649;53.672;10.064;2022-11-20T11:30:53;3.70;99.90
3275;DHT22;1649;53.672;10.064;2022-11-20T11:35:48;3.80;99.90
3275;DHT22;1649;53.672;10.064;2022-11-20T11:38:16;3.80;99.90
3275;DHT22;1649;53.672;10.064;2022-11-20T11:40:44;3.80;99.90
3275;DHT22;1649;53.672;10.064;2022-11-20T11:43:20;3.70;99.90
3275;DHT22;1649;53.672;10.064;2022-11-20T11:46:34;3.70;99.90
3275;DHT22;1649;53.672;10.064;2022-11-20T11:51:46;4.20;99.90
3275;DHT22;1649;53.672;10.064;2022-11-20T11:54:21;4.30;99.90
3275;DHT22;1649;53.672;10.064;2022-11-20T11:56:49;4.20;99.90
3275;DHT22;1649;53.672;10.064;2022-11-20T12:02:22;4.00;99.90
3275;DHT22;1649;53.672;10.064;2022-11-20T12:04:54;4.00;99.90
3275;DHT22;1649;53.672;10.064;2022-11-20T12:10:41;4.10;99.90
3275;DHT22;1649;53.672;10.064;2022-11-20T12:13:24;4.10;99.90
3275;DHT22;1649;53.672;10.064;2022-11-20T12:15:53;4.10;99.90
3275;DHT22;1649;53.672;10.064;2022-11-20T12:18:20;4.10;99.90
3275;DHT22;1649;53.672;10.064;2022-11-20T12:23:44;3.70;99.90
3275;DHT22;1649;53.672;10.064;2022-11-20T12:26:31;3.70;99.90
3275;DHT22;1649;53.672;10.064;2022-11-20T12:29:17;3.60;99.90
3275;DHT22;1649;53.672;10.064;2022-11-20T12:34:39;3.50;99.90
3275;DHT22;1649;53.672;10.064;2022-11-20T12:37:29;3.50;99.90
3275;DHT22;1649;53.672;10.064;2022-11-20T12:40:07;3.50;99.90
3275;DHT22;1649;53.672;10.064;2022-11-20T12:45:59;3.60;99.90
3275;DHT22;1649;53.672;10.064;2022-11-20T12:48:41;3.60;99.90
3275;DHT22;1649;53.672;10.064;2022-11-20T12:54:11;3.70;99.90
3275;DHT22;1649;53.672;10.064;2022-11-20T12:56:49;3.70;99.90
3275;DHT22;1649;53.672;10.064;2022-11-20T13:07:58;4.00;99.90
3275;DHT22;1649;53.672;10.064;2022-11-20T13:10:46;4.10;99.90
3275;DHT22;1649;53.672;10.064;2022-11-20T13:18:35;4.20;99.90
3275;DHT22;1649;53.672;10.064;2022-11-20T13:21:20;4.10;99.90
3275;DHT22;1649;53.672;10.064;2022-11-20T13:23:46;4.10;99.90
3275;DHT22;1649;53.672;10.064;2022-11-20T13:26:22;4.10;99.90
3275;DHT22;1649;53.672;10.064;2022-11-20T13:28:59;4.10;99.90
3275;DHT22;1649;53.672;10.064;2022-11-20T13:31:30;4.00;99.90
3275;DHT22;1649;53.672;10.064;2022-11-20T13:33:57;4.00;99.90
3275;DHT22;1649;53.672;10.064;2022-11-20T13:36:27;3.90;99.90
3275;DHT22;1649;53.672;10.064;2022-11-20T13:38:55;3.80;99.90
3275;DHT22;1649;53.672;10.064;2022-11-20T13:41:36;3.80;99.90
3275;DHT22;1649;53.672;10.064;2022-11-20T13:44:13;3.80;99.90
3275;DHT22;1649;53.672;10.064;2022-11-20T13:46:41;3.90;99.90
3275;DHT22;1649;53.672;10.064;2022-11-20T13:51:55;3.90;99.90
3275;DHT22;1649;53.672;10.064;2022-11-20T14:00:19;3.80;99.90
3275;DHT22;1649;53.672;10.064;2022-11-20T14:06:00;3.80;99.90
3275;DHT22;1649;53.672;10.064;2022-11-20T14:08:40;3.70;99.90
3275;DHT22;1649;53.672;10.064;2022-11-20T14:11:26;3.70;99.90
3275;DHT22;1649;53.672;10.064;2022-11-20T14:16:26;3.70;99.90
3275;DHT22;1649;53.672;10.064;2022-11-20T14:18:52;3.60;99.90
3275;DHT22;1649;53.672;10.064;2022-11-20T14:21:24;3.50;99.90
3275;DHT22;1649;53.672;10.064;2022-11-20T14:23:53;3.40;99.90
3275;DHT22;1649;53.672;10.064;2022-11-20T14:26:19;3.50;99.90
3275;DHT22;1649;53.672;10.064;2022-11-20T14:28:50;3.50;99.90
3275;DHT22;1649;53.672;10.064;2022-11-20T14:31:26;3.50;99.90
3275;DHT22;1649;53.672;10.064;2022-11-20T14:33:53;3.50;99.90
3275;DHT22;1649;53.672;10.064;2022-11-20T14:36:21;3.50;99.90
3275;DHT22;1649;53.672;10.064;2022-11-20T14:38:48;3.60;99.90
3275;DHT22;1649;53.672;10.064;2022-11-20T14:41:19;3.50;99.90
3275;DHT22;1649;53.672;10.064;2022-11-20T14:43:55;3.50;99.90
3275;DHT22;1649;53.672;10.064;2022-11-20T14:46:21;3.50;99.90
3275;DHT22;1649;53.672;10.064;2022-11-20T14:48:50;3.40;99.90
3275;DHT22;1649;53.672;10.064;2022-11-20T14:51:33;3.50;99.90
3275;DHT22;1649;53.672;10.064;2022-11-20T14:54:12;3.50;99.90
3275;DHT22;1649;53.672;10.064;2022-11-20T14:56:39;3.50;99.90
3275;DHT22;1649;53.672;10.064;2022-11-20T14:59:05;3.40;99.90
3275;DHT22;1649;53.672;10.064;2022-11-20T15:01:32;3.40;99.90
3275;DHT22;1649;53.672;10.064;2022-11-20T15:04:10;3.40;99.90
3275;DHT22;1649;53.672;10.064;2022-11-20T15:06:36;3.30;99.90
3275;DHT22;1649;53.672;10.064;2022-11-20T15:09:03;3.30;99.90
3275;DHT22;1649;53.672;10.064;2022-11-20T15:11:32;3.30;99.90
3275;DHT22;1649;53.672;10.064;2022-11-20T15:14:03;3.30;99.90
3275;DHT22;1649;53.672;10.064;2022-11-20T15:16:29;3.30;99.90
3275;DHT22;1649;53.672;10.064;2022-11-20T15:18:55;3.40;99.90
3275;DHT22;1649;53.672;10.064;2022-11-20T15:21:21;3.30;99.90
3275;DHT22;1649;53.672;10.064;2022-11-20T15:23:47;3.30;99.90
3275;DHT22;1649;53.672;10.064;2022-11-20T15:26:15;3.30;99.90
3275;DHT22;1649;53.672;10.064;2022-11-20T15:28:44;3.30;99.90
3275;DHT22;1649;53.672;10.064;2022-11-20T15:31:14;3.30;99.90
3275;DHT22;1649;53.672;10.064;2022-11-20T15:33:40;3.30;99.90
3275;DHT22;1649;53.672;10.064;2022-11-20T15:36:05;3.30;99.90
3275;DHT22;1649;53.672;10.064;2022-11-20T15:38:31;3.30;99.90
3275;DHT22;1649;53.672;10.064;2022-11-20T15:40:57;3.30;99.90
3275;DHT22;1649;53.672;10.064;2022-11-20T15:43:23;3.30;99.90
3275;DHT22;1649;53.672;10.064;2022-11-20T15:45:54;3.30;99.90
3275;DHT22;1649;53.672;10.064;2022-11-20T15:53:38;3.20;99.90
3275;DHT22;1649;53.672;10.064;2022-11-20T15:56:04;3.20;99.90
3275;DHT22;1649;53.672;10.064;2022-11-20T15:58:30;3.20;99.90
3275;DHT22;1649;53.672;10.064;2022-11-20T16:00:55;3.20;99.90
3275;DHT22;1649;53.672;10.064;2022-11-20T16:03:21;3.20;99.90
3275;DHT22;1649;53.672;10.064;2022-11-20T16:05:47;3.20;99.90
3275;DHT22;1649;53.672;10.064;2022-11-20T16:08:13;3.20;99.90
3275;DHT22;1649;53.672;10.064;2022-11-20T16:10:39;3.20;99.90
3275;DHT22;1649;53.672;10.064;2022-11-20T16:13:11;3.20;99.90
3275;DHT22;1649;53.672;10.064;2022-11-20T16:15:57;3.20;99.90
3275;DHT22;1649;53.672;10.064;2022-11-20T16:18:24;3.20;99.90
3275;DHT22;1649;53.672;10.064;2022-11-20T16:20:52;3.10;99.90
3275;DHT22;1649;53.672;10.064;2022-11-20T16:23:18;3.10;99.90
3275;DHT22;1649;53.672;10.064;2022-11-20T16:25:44;3.10;99.90
3275;DHT22;1649;53.672;10.064;2022-11-20T16:28:10;3.10;99.90
3275;DHT22;1649;53.672;10.064;2022-11-20T16:30:36;3.00;99.90
3275;DHT22;1649;53.672;10.064;2022-11-20T16:33:02;3.00;99.90
3275;DHT22;1649;53.672;10.064;2022-11-20T16:35:30;3.00;99.90
3275;DHT22;1649;53.672;10.064;2022-11-20T16:37:56;2.90;99.90
3275;DHT22;1649;53.672;10.064;2022-11-20T16:40:22;2.90;99.90
3275;DHT22;1649;53.672;10.064;2022-11-20T16:42:48;2.90;99.90
3275;DHT22;1649;53.672;10.064;2022-11-20T16:45:13;2.80;99.90
3275;DHT22;1649;53.672;10.064;2022-11-20T16:47:39;2.80;99.90
3275;DHT22;1649;53.672;10.064;2022-11-20T16:50:05;2.80;99.90
3275;DHT22;1649;53.672;10.064;2022-11-20T16:52:31;2.90;99.90
3275;DHT22;1649;53.672;10.064;2022-11-20T16:54:57;2.90;99.90
3275;DHT22;1649;53.672;10.064;2022-11-20T16:57:22;2.90;99.90
3275;DHT22;1649;53.672;10.064;2022-11-20T16:59:48;2.90;99.90
3275;DHT22;1649;53.672;10.064;2022-11-20T17:02:14;2.90;99.90
3275;DHT22;1649;53.672;10.064;2022-11-20T17:04:40;2.90;99.90
3275;DHT22;1649;53.672;10.064;2022-11-20T17:07:06;2.90;99.90
3275;DHT22;1649;53.672;10.064;2022-11-20T17:09:31;2.90;99.90
3275;DHT22;1649;53.672;10.064;2022-11-20T17:11:57;2.90;99.90
3275;DHT22;1649;53.672;10.064;2022-11-20T17:14:22;2.80;99.90
3275;DHT22;1649;53.672;10.064;2022-11-20T17:16:48;2.80;99.90
3275;DHT22;1649;53.672;10.064;2022-11-20T17:19:14;2.80;99.90
3275;DHT22;1649;53.672;10.064;2022-11-20T17:21:39;2.80;99.90
3275;DHT22;1649;53.672;10.064;2022-11-20T17:24:07;2.80;99.90
3275;DHT22;1649;53.672;10.064;2022-11-20T17:26:34;2.80;99.90
3275;DHT22;1649;53.672;10.064;2022-11-20T17:29:08;2.80;99.90
3275;DHT22;1649;53.672;10.064;2022-11-20T17:31:36;2.70;99.90
3275;DHT22;1649;53.672;10.064;2022-11-20T17:34:06;2.70;99.90
3275;DHT22;1649;53.672;10.064;2022-11-20T17:36:32;2.70;99.90
3275;DHT22;1649;53.672;10.064;2022-11-20T17:38:58;2.60;99.90
3275;DHT22;1649;53.672;10.064;2022-11-20T17:41:25;2.30;99.90
3275;DHT22;1649;53.672;10.064;2022-11-20T17:43:59;2.40;99.90